createdAt,value
2023-01-21T00:01:09.154Z,5.50
2023-01-21T00:03:54.459Z,5.60
2023-01-21T00:06:42.034Z,4.93
2023-01-21T00:09:29.851Z,4.27
2023-01-21T00:12:15.596Z,4.67
2023-01-21T00:15:01.736Z,5.00
2023-01-21T00:17:49.584Z,5.13
2023-01-21T00:20:35.080Z,4.80
2023-01-21T00:23:23.417Z,3.20
2023-01-21T00:26:12.777Z,3.50
2023-01-21T00:28:58.675Z,5.03
2023-01-21T00:31:46.384Z,4.10
2023-01-21T00:34:32.530Z,4.00
2023-01-21T00:37:22.740Z,4.90
2023-01-21T00:40:08.622Z,4.03
2023-01-21T00:42:53.919Z,4.97
2023-01-21T00:45:41.499Z,4.00
2023-01-21T00:48:28.578Z,4.03
2023-01-21T00:51:16.828Z,4.50
2023-01-21T00:54:04.836Z,5.07
2023-01-21T00:56:50.850Z,3.50
2023-01-21T00:59:36.606Z,3.90
2023-01-21T01:02:22.278Z,5.53
2023-01-21T01:05:08.362Z,4.00
2023-01-21T01:07:56.613Z,4.50
2023-01-21T01:10:42.436Z,4.17
2023-01-21T01:13:28.316Z,4.80
2023-01-21T01:16:16.433Z,4.40
2023-01-21T01:19:06.743Z,4.33
2023-01-21T01:21:52.250Z,4.30
2023-01-21T01:24:37.693Z,4.37
2023-01-21T01:27:23.976Z,4.20
2023-01-21T01:30:10.379Z,4.73
2023-01-21T01:32:55.671Z,4.73
2023-01-21T01:35:42.033Z,4.67
2023-01-21T01:38:27.209Z,5.40
2023-01-21T01:41:20.686Z,4.43
2023-01-21T01:44:45.214Z,4.60
2023-01-21T01:47:58.216Z,4.43
2023-01-21T01:50:44.494Z,5.00
2023-01-21T01:53:32.201Z,4.90
2023-01-21T01:56:17.899Z,4.00
2023-01-21T01:59:05.661Z,4.83
2023-01-21T02:01:51.234Z,5.30
2023-01-21T02:04:44.568Z,5.60
2023-01-21T02:07:39.246Z,5.50
2023-01-21T02:10:27.651Z,5.23
2023-01-21T02:13:16.294Z,6.03
2023-01-21T02:16:21.455Z,6.00
2023-01-21T02:19:38.011Z,5.80
2023-01-21T02:22:50.765Z,5.70
2023-01-21T02:25:54.955Z,5.37
2023-01-21T02:28:46.865Z,5.23
2023-01-21T02:32:29.826Z,5.63
2023-01-21T02:35:34.200Z,5.70
2023-01-21T02:38:52.520Z,5.00
2023-01-21T02:41:55.859Z,5.97
2023-01-21T02:44:57.547Z,5.53
2023-01-21T02:48:10.560Z,5.30
2023-01-21T02:50:56.836Z,6.23
2023-01-21T02:53:42.427Z,5.20
2023-01-21T02:56:28.157Z,5.50
2023-01-21T02:59:14.129Z,4.60
2023-01-21T03:02:19.857Z,5.10
2023-01-21T03:05:35.155Z,5.20
2023-01-21T03:08:47.625Z,6.70
2023-01-21T03:11:34.061Z,5.20
2023-01-21T03:14:44.241Z,4.90
2023-01-21T03:17:48.629Z,6.10
2023-01-21T03:20:49.359Z,5.47
2023-01-21T03:23:38.916Z,4.50
2023-01-21T03:26:31.191Z,6.00
2023-01-21T03:29:23.360Z,5.87
2023-01-21T03:32:13.796Z,4.57
2023-01-21T03:35:06.019Z,5.60
2023-01-21T03:38:09.897Z,6.07
2023-01-21T03:41:22.964Z,5.30
2023-01-21T03:44:08.379Z,5.80
2023-01-21T03:47:01.701Z,4.77
2023-01-21T03:49:57.967Z,5.13
2023-01-21T03:52:44.860Z,4.80
2023-01-21T03:55:30.425Z,5.80
2023-01-21T03:58:15.559Z,4.30
2023-01-21T04:01:01.235Z,4.37
2023-01-21T04:03:46.810Z,4.47
2023-01-21T04:06:33.159Z,5.70
2023-01-21T04:09:20.955Z,4.83
2023-01-21T04:12:06.458Z,4.40
2023-01-21T04:14:51.884Z,4.53
2023-01-21T04:17:37.155Z,4.67
2023-01-21T04:20:24.798Z,5.07
2023-01-21T04:23:10.086Z,4.23
2023-01-21T04:25:55.613Z,4.33
2023-01-21T04:28:42.114Z,4.00
2023-01-21T04:31:27.656Z,3.90
2023-01-21T04:34:13.336Z,4.53
2023-01-21T04:36:58.792Z,3.80
2023-01-21T04:39:44.183Z,4.20
2023-01-21T04:42:34.422Z,3.97
2023-01-21T04:45:22.187Z,3.90
2023-01-21T04:48:07.942Z,3.30
2023-01-21T04:50:53.160Z,3.20
2023-01-21T04:53:41.306Z,3.30
2023-01-21T04:56:29.076Z,3.57
2023-01-21T04:59:17.196Z,3.40
2023-01-21T05:02:02.517Z,3.80
2023-01-21T05:04:48.047Z,4.47
2023-01-21T05:07:33.527Z,3.87
2023-01-21T05:10:19.315Z,3.23
2023-01-21T05:13:05.715Z,3.70
2023-01-21T05:15:51.330Z,4.37
2023-01-21T05:18:40.761Z,3.60
2023-01-21T05:21:26.163Z,3.30
2023-01-21T05:24:11.719Z,4.43
2023-01-21T05:26:56.962Z,4.10
2023-01-21T05:29:44.614Z,3.60
2023-01-21T05:32:29.995Z,3.70
2023-01-21T05:35:19.017Z,3.73
2023-01-21T05:38:06.681Z,3.07
2023-01-21T05:40:57.122Z,3.30
2023-01-21T05:43:44.769Z,3.37
2023-01-21T05:46:29.968Z,3.90
2023-01-21T05:49:15.510Z,3.70
2023-01-21T05:52:01.849Z,4.00
2023-01-21T05:55:00.977Z,3.83
2023-01-21T05:57:47.799Z,3.97
2023-01-21T06:00:36.105Z,4.00
2023-01-21T06:03:21.538Z,3.30
2023-01-21T06:06:08.847Z,3.73
2023-01-21T06:08:54.908Z,4.20
2023-01-21T06:11:42.067Z,4.10
2023-01-21T06:14:27.595Z,4.43
2023-01-21T06:17:18.291Z,4.17
2023-01-21T06:20:03.983Z,4.30
2023-01-21T06:22:49.570Z,4.47
2023-01-21T06:25:35.483Z,4.47
2023-01-21T06:28:21.183Z,4.57
2023-01-21T06:31:08.985Z,5.00
2023-01-21T06:33:54.858Z,5.37
2023-01-21T06:36:42.708Z,4.67
2023-01-21T06:39:32.759Z,5.80
2023-01-21T06:42:18.802Z,5.40
2023-01-21T06:45:04.908Z,5.33
2023-01-21T06:47:50.302Z,5.17
2023-01-21T06:50:36.235Z,5.80
2023-01-21T06:53:23.921Z,6.20
2023-01-21T06:56:09.139Z,5.63
2023-01-21T06:58:55.232Z,6.50
2023-01-21T07:01:40.774Z,5.87
2023-01-21T07:04:30.326Z,5.70
2023-01-21T07:07:15.592Z,6.50
2023-01-21T07:10:03.241Z,5.43
2023-01-21T07:12:49.028Z,6.00
2023-01-21T07:15:37.143Z,6.70
2023-01-21T07:18:22.650Z,5.47
2023-01-21T07:21:08.088Z,5.40
2023-01-21T07:23:56.706Z,7.80
2023-01-21T07:26:44.896Z,6.43
2023-01-21T07:29:33.260Z,6.40
2023-01-21T07:32:19.010Z,7.10
2023-01-21T07:35:04.653Z,7.50
2023-01-21T07:37:49.907Z,6.53
2023-01-21T07:40:35.718Z,7.23
2023-01-21T07:43:21.389Z,6.10
2023-01-21T07:46:06.784Z,6.57
2023-01-21T07:48:53.598Z,6.10
2023-01-21T07:51:41.383Z,5.30
2023-01-21T07:54:28.828Z,7.10
2023-01-21T07:57:17.199Z,6.77
2023-01-21T08:00:03.144Z,6.90
2023-01-21T08:02:52.066Z,7.10
2023-01-21T08:05:37.791Z,6.47
2023-01-21T08:08:23.123Z,6.70
2023-01-21T08:11:09.158Z,7.10
2023-01-21T08:13:54.556Z,6.40
2023-01-21T08:16:41.554Z,5.50
2023-01-21T08:19:29.638Z,6.03
2023-01-21T08:22:15.016Z,5.73
2023-01-21T08:25:00.543Z,6.03
2023-01-21T08:27:48.805Z,5.70
2023-01-21T08:30:34.420Z,6.37
2023-01-21T08:33:22.732Z,6.70
2023-01-21T08:36:10.034Z,6.00
2023-01-21T08:38:58.764Z,6.40
2023-01-21T08:41:46.077Z,6.90
2023-01-21T08:44:31.837Z,6.10
2023-01-21T08:47:18.343Z,6.30
2023-01-21T08:50:03.763Z,5.70
2023-01-21T08:52:58.975Z,5.60
2023-01-21T08:55:44.432Z,6.27
2023-01-21T08:58:30.952Z,5.63
2023-01-21T09:01:16.434Z,5.87
2023-01-21T09:04:04.843Z,6.60
2023-01-21T09:06:51.299Z,4.70
2023-01-21T09:09:36.570Z,5.97
2023-01-21T09:12:22.307Z,5.40
2023-01-21T09:15:08.759Z,5.57
2023-01-21T09:17:56.851Z,6.50
2023-01-21T09:20:42.599Z,5.43
2023-01-21T09:23:28.250Z,6.33
2023-01-21T09:26:17.089Z,5.67
2023-01-21T09:29:02.927Z,6.10
2023-01-21T09:31:48.209Z,5.13
2023-01-21T09:34:35.844Z,4.80
2023-01-21T09:37:21.570Z,5.10
2023-01-21T09:40:09.209Z,5.90
2023-01-21T09:42:54.944Z,4.90
2023-01-21T09:45:44.002Z,6.40
2023-01-21T09:48:36.788Z,5.70
2023-01-21T09:51:43.032Z,5.50
2023-01-21T09:54:32.041Z,5.93
2023-01-21T09:57:17.417Z,4.93
2023-01-21T10:00:16.743Z,5.67
2023-01-21T10:03:09.064Z,5.23
2023-01-21T10:06:09.416Z,5.60
2023-01-21T10:09:24.870Z,5.47
2023-01-21T10:12:35.682Z,5.90
2023-01-21T10:15:49.458Z,6.30
2023-01-21T10:18:41.489Z,5.67
2023-01-21T10:21:40.585Z,4.60
2023-01-21T10:24:33.180Z,5.27
2023-01-21T10:27:23.886Z,4.90
2023-01-21T10:30:23.052Z,5.93
2023-01-21T10:33:26.951Z,6.10
2023-01-21T10:36:48.850Z,5.53
2023-01-21T10:39:56.357Z,5.30
2023-01-21T10:43:01.768Z,5.90
2023-01-21T10:46:26.730Z,5.47
2023-01-21T10:49:41.599Z,5.40
2023-01-21T10:52:26.816Z,6.57
2023-01-21T10:55:37.571Z,5.80
2023-01-21T10:58:54.278Z,5.73
2023-01-21T11:01:47.252Z,6.40
2023-01-21T11:04:35.751Z,5.83
2023-01-21T11:07:22.936Z,4.70
2023-01-21T11:10:09.394Z,5.73
2023-01-21T11:12:57.412Z,5.20
2023-01-21T11:15:51.054Z,5.63
2023-01-21T11:18:39.782Z,5.03
2023-01-21T11:21:28.482Z,5.10
2023-01-21T11:24:25.150Z,4.40
2023-01-21T11:27:35.785Z,4.43
2023-01-21T11:30:44.554Z,4.77
2023-01-21T11:33:36.736Z,5.50
2023-01-21T11:36:22.590Z,5.70
2023-01-21T11:39:13.028Z,4.93
2023-01-21T11:42:08.069Z,4.93
2023-01-21T11:45:04.385Z,4.50
2023-01-21T11:47:51.697Z,4.80
2023-01-21T11:50:40.761Z,4.80
2023-01-21T11:53:26.929Z,4.70
2023-01-21T11:56:12.958Z,5.30
2023-01-21T11:59:00.793Z,4.40
2023-01-21T12:01:57.214Z,4.17
2023-01-21T12:04:57.257Z,4.23
2023-01-21T12:07:45.633Z,5.60
2023-01-21T12:10:39.483Z,4.50
2023-01-21T12:13:44.460Z,3.60
2023-01-21T12:16:45.548Z,3.73
2023-01-21T12:19:52.744Z,4.00
2023-01-21T12:22:49.995Z,3.77
2023-01-21T12:25:50.985Z,3.97
2023-01-21T12:28:51.779Z,2.73
2023-01-21T12:32:02.230Z,2.40
2023-01-21T12:35:43.407Z,2.70
2023-01-21T12:38:38.497Z,2.80
2023-01-21T12:41:28.589Z,3.10
2023-01-21T12:44:18.420Z,2.97
2023-01-21T12:47:12.686Z,2.43
2023-01-21T12:50:41.314Z,2.90
2023-01-21T12:53:44.612Z,2.80
2023-01-21T12:56:37.625Z,3.07
2023-01-21T12:59:47.500Z,2.03
2023-01-21T13:03:01.931Z,2.10
2023-01-21T13:05:57.760Z,2.40
2023-01-21T13:09:07.704Z,2.20
2023-01-21T13:11:58.120Z,2.13
2023-01-21T13:14:48.535Z,1.80
2023-01-21T13:17:35.415Z,1.53
2023-01-21T13:20:22.635Z,2.00
2023-01-21T13:23:45.815Z,1.90
2023-01-21T13:26:41.986Z,1.83
2023-01-21T13:29:45.224Z,1.93
2023-01-21T13:32:49.357Z,2.23
2023-01-21T13:36:00.572Z,2.40
2023-01-21T13:39:03.323Z,2.17
2023-01-21T13:42:00.763Z,1.97
2023-01-21T13:45:07.637Z,1.80
2023-01-21T13:48:18.427Z,2.20
2023-01-21T13:51:27.774Z,2.57
2023-01-21T13:54:35.199Z,2.17
2023-01-21T13:57:31.720Z,2.07
2023-01-21T14:01:00.482Z,2.63
2023-01-21T14:04:21.630Z,2.40
2023-01-21T14:07:35.541Z,2.00
2023-01-21T14:10:28.792Z,2.00
2023-01-21T14:13:33.158Z,1.93
2023-01-21T14:16:24.286Z,1.97
2023-01-21T14:19:15.860Z,1.77
2023-01-21T14:22:23.781Z,2.00
2023-01-21T14:25:24.598Z,2.10
2023-01-21T14:28:34.335Z,1.87
2023-01-21T14:31:31.236Z,1.90
2023-01-21T14:34:26.589Z,1.47
2023-01-21T14:37:17.267Z,1.33
2023-01-21T14:40:18.222Z,1.43
2023-01-21T14:43:03.844Z,1.43
2023-01-21T14:45:55.476Z,1.43
2023-01-21T14:48:42.485Z,1.03
2023-01-21T14:51:31.546Z,1.23
2023-01-21T14:54:23.708Z,1.10
2023-01-21T14:57:33.117Z,1.10
2023-01-21T15:00:23.795Z,1.10
2023-01-21T15:03:19.485Z,0.87
2023-01-21T15:06:18.039Z,1.10
2023-01-21T15:09:05.535Z,1.20
2023-01-21T15:11:56.481Z,1.60
2023-01-21T15:14:42.529Z,1.00
2023-01-21T15:18:06.992Z,1.10
2023-01-21T15:20:58.615Z,1.07
2023-01-21T15:23:44.150Z,1.10
2023-01-21T15:26:33.320Z,1.03
2023-01-21T15:29:34.474Z,1.10
2023-01-21T15:32:40.331Z,1.03
2023-01-21T15:35:37.081Z,1.07
2023-01-21T15:38:24.965Z,0.90
2023-01-21T15:41:27.131Z,1.20
2023-01-21T15:44:25.139Z,1.00
2023-01-21T15:47:22.502Z,1.00
2023-01-21T15:50:46.211Z,1.43
2023-01-21T15:53:45.144Z,0.97
2023-01-21T15:57:05.687Z,0.83
2023-01-21T16:00:15.659Z,1.13
2023-01-21T16:03:11.263Z,1.27
2023-01-21T16:06:10.215Z,1.20
2023-01-21T16:09:03.793Z,1.23
2023-01-21T16:12:18.289Z,1.20
2023-01-21T16:15:37.813Z,1.57
2023-01-21T16:18:59.281Z,1.90
2023-01-21T16:21:48.856Z,1.10
2023-01-21T16:24:47.555Z,2.00
2023-01-21T16:27:33.292Z,1.27
2023-01-21T16:30:37.224Z,1.10
2023-01-21T16:33:25.121Z,1.40
2023-01-21T16:36:17.173Z,1.27
2023-01-21T16:39:07.749Z,1.60
2023-01-21T16:42:04.802Z,1.13
2023-01-21T16:44:51.010Z,1.50
2023-01-21T16:47:39.316Z,1.53
2023-01-21T16:50:28.441Z,1.40
2023-01-21T16:53:17.708Z,1.20
2023-01-21T16:56:03.167Z,1.67
2023-01-21T16:58:48.813Z,1.43
2023-01-21T17:01:37.638Z,1.40
2023-01-21T17:04:23.941Z,1.30
2023-01-21T17:07:42.298Z,1.07
2023-01-21T17:10:35.123Z,1.20
2023-01-21T17:13:23.157Z,1.23
2023-01-21T17:16:19.263Z,1.20
2023-01-21T17:19:18.538Z,2.07
2023-01-21T17:22:19.432Z,1.53
2023-01-21T17:25:20.004Z,1.63
2023-01-21T17:28:45.372Z,1.50
2023-01-21T17:31:40.140Z,1.07
2023-01-21T17:34:29.239Z,1.30
2023-01-21T17:37:59.647Z,1.20
2023-01-21T17:41:02.147Z,1.53
2023-01-21T17:43:49.800Z,1.40
2023-01-21T17:46:35.490Z,2.13
2023-01-21T17:49:25.732Z,1.43
2023-01-21T17:52:19.823Z,1.40
2023-01-21T17:55:33.905Z,1.47
2023-01-21T17:58:32.196Z,1.77
2023-01-21T18:01:20.067Z,1.00
2023-01-21T18:04:05.502Z,1.73
2023-01-21T18:06:53.316Z,1.77
2023-01-21T18:09:38.649Z,2.40
2023-01-21T18:12:24.196Z,1.50
2023-01-21T18:15:13.617Z,1.93
2023-01-21T18:18:02.877Z,1.47
2023-01-21T18:20:48.669Z,1.80
2023-01-21T18:23:36.477Z,2.40
2023-01-21T18:26:35.741Z,1.63
2023-01-21T18:29:30.388Z,1.20
2023-01-21T18:32:17.645Z,1.63
2023-01-21T18:35:03.168Z,1.47
2023-01-21T18:37:48.802Z,1.60
2023-01-21T18:40:34.138Z,1.70
2023-01-21T18:43:19.737Z,1.47
2023-01-21T18:46:11.627Z,1.43
2023-01-21T18:48:57.535Z,2.53
2023-01-21T18:51:44.029Z,2.00
2023-01-21T18:54:29.873Z,1.20
2023-01-21T18:57:18.858Z,1.47
2023-01-21T19:00:15.181Z,1.80
2023-01-21T19:03:01.612Z,1.50
2023-01-21T19:05:47.788Z,1.43
2023-01-21T19:08:33.787Z,1.47
2023-01-21T19:11:19.799Z,1.33
2023-01-21T19:14:08.162Z,1.80
2023-01-21T19:16:53.789Z,1.50
2023-01-21T19:19:39.796Z,1.50
2023-01-21T19:22:25.029Z,1.37
2023-01-21T19:25:10.913Z,1.63
2023-01-21T19:27:57.213Z,1.33
2023-01-21T19:30:46.620Z,1.23
2023-01-21T19:33:32.266Z,1.60
2023-01-21T19:36:21.942Z,1.47
2023-01-21T19:39:16.553Z,2.13
2023-01-21T19:42:08.441Z,1.37
2023-01-21T19:44:56.945Z,1.03
2023-01-21T19:47:47.254Z,1.60
2023-01-21T19:50:35.074Z,2.07
2023-01-21T19:53:22.352Z,2.03
2023-01-21T19:56:13.867Z,2.27
2023-01-21T19:59:00.911Z,1.50
2023-01-21T20:01:50.878Z,2.10
2023-01-21T20:04:38.557Z,1.70
2023-01-21T20:07:24.287Z,1.50
2023-01-21T20:10:26.784Z,1.67
2023-01-21T20:13:13.368Z,1.60
2023-01-21T20:16:07.400Z,1.90
2023-01-21T20:18:56.202Z,1.53
2023-01-21T20:21:59.649Z,1.60
2023-01-21T20:24:46.430Z,1.53
2023-01-21T20:27:32.691Z,2.00
2023-01-21T20:30:21.407Z,1.50
2023-01-21T20:33:10.839Z,1.80
2023-01-21T20:35:57.540Z,2.73
2023-01-21T20:38:42.726Z,1.87
2023-01-21T20:41:28.203Z,1.83
2023-01-21T20:44:15.726Z,1.60
2023-01-21T20:47:01.383Z,1.40
2023-01-21T20:49:47.227Z,1.70
2023-01-21T20:52:35.241Z,1.87
2023-01-21T20:55:24.439Z,1.70
2023-01-21T20:58:13.619Z,2.00
2023-01-21T21:00:59.535Z,2.10
2023-01-21T21:03:48.944Z,2.00
2023-01-21T21:06:34.236Z,2.70
2023-01-21T21:09:22.261Z,2.50
2023-01-21T21:12:08.037Z,1.97
2023-01-21T21:14:53.604Z,1.43
2023-01-21T21:17:39.261Z,2.20
2023-01-21T21:20:28.296Z,2.17
2023-01-21T21:23:18.630Z,3.73
2023-01-21T21:26:04.740Z,1.70
2023-01-21T21:29:02.635Z,2.50
2023-01-21T21:31:48.556Z,2.30
2023-01-21T21:34:34.532Z,1.87
2023-01-21T21:37:19.770Z,2.10
2023-01-21T21:40:08.012Z,2.20
2023-01-21T21:43:12.597Z,2.00
2023-01-21T21:46:17.568Z,2.00
2023-01-21T21:49:05.502Z,1.70
2023-01-21T21:51:51.055Z,1.47
2023-01-21T21:54:37.106Z,2.43
2023-01-21T21:57:22.587Z,2.00
2023-01-21T22:00:09.475Z,1.57
2023-01-21T22:02:59.886Z,2.13
2023-01-21T22:05:52.518Z,2.10
2023-01-21T22:08:42.286Z,1.67
2023-01-21T22:11:29.168Z,1.37
2023-01-21T22:14:14.923Z,1.10
2023-01-21T22:17:00.359Z,1.57
2023-01-21T22:19:45.906Z,1.93
2023-01-21T22:22:31.091Z,1.40
2023-01-21T22:25:17.034Z,1.53
2023-01-21T22:28:05.030Z,1.60
2023-01-21T22:30:50.567Z,1.47
2023-01-21T22:33:37.415Z,1.60
2023-01-21T22:36:25.434Z,1.90
2023-01-21T22:39:12.372Z,1.67
2023-01-21T22:42:05.043Z,1.40
2023-01-21T22:44:50.687Z,1.30
2023-01-21T22:47:36.186Z,1.77
2023-01-21T22:50:21.482Z,1.60
2023-01-21T22:53:07.171Z,1.40
2023-01-21T22:55:56.723Z,1.30
2023-01-21T22:58:42.725Z,1.33
2023-01-21T23:01:32.081Z,1.30
2023-01-21T23:04:17.804Z,1.13
2023-01-21T23:07:03.404Z,1.60
2023-01-21T23:09:49.069Z,1.40
2023-01-21T23:12:35.156Z,1.80
2023-01-21T23:15:22.075Z,1.43
2023-01-21T23:18:07.597Z,1.40
2023-01-21T23:20:52.922Z,1.67
2023-01-21T23:23:38.817Z,1.73
2023-01-21T23:26:27.434Z,1.50
2023-01-21T23:29:13.109Z,1.83
2023-01-21T23:32:01.007Z,1.40
2023-01-21T23:34:46.843Z,1.50
2023-01-21T23:37:32.396Z,1.93
2023-01-21T23:40:18.472Z,1.60
2023-01-21T23:43:04.102Z,1.50
2023-01-21T23:45:49.737Z,1.33
2023-01-21T23:48:35.353Z,1.70
2023-01-21T23:51:20.831Z,1.20
2023-01-21T23:54:06.584Z,1.40
2023-01-21T23:56:52.036Z,1.93
2023-01-21T23:59:38.297Z,1.10
